Time;durP1;ratioP1;P1;durP2;ratioP2;P2;SDS_P1;SDS_P2;PMS_P1;PMS_P2;Temp;Humidity;BMP_temperature;BMP_pressure;BME280_temperature;BME280_humidity;BME280_pressure;Samples;Min_cycle;Max_cycle;Signal;HPM_P1;HPM_P2
2024/01/22 00:00:09;;;;;;;1999.90;999.90;;;7.80;99.90;;;;;;5077750;28;20435;-65
2024/01/22 00:02:36;;;;;;;1999.90;999.90;;;7.70;99.90;;;;;;5071145;28;20435;-66
2024/01/22 00:05:04;;;;;;;1999.90;999.90;;;7.70;99.90;;;;;;5076711;28;20451;-65
2024/01/22 00:07:31;;;;;;;1999.90;999.90;;;7.60;99.90;;;;;;5071061;28;20843;-65
2024/01/22 00:09:58;;;;;;;1999.90;999.90;;;7.60;99.90;;;;;;5069658;28;20886;-65
2024/01/22 00:12:25;;;;;;;1999.90;999.90;;;7.60;99.90;;;;;;5070696;28;20411;-65
2024/01/22 00:14:51;;;;;;;1999.90;999.90;;;7.50;99.90;;;;;;5069059;28;20431;-65
2024/01/22 00:17:18;;;;;;;1999.90;999.90;;;7.50;99.90;;;;;;5079955;28;20441;-67
2024/01/22 00:19:45;;;;;;;1999.90;999.90;;;7.50;99.90;;;;;;5079079;28;20412;-66
2024/01/22 00:22:13;;;;;;;1999.90;999.90;;;7.60;99.90;;;;;;5079583;28;20427;-68
2024/01/22 00:24:40;;;;;;;1999.90;999.90;;;7.60;99.90;;;;;;5079976;28;20932;-64
2024/01/22 00:27:07;;;;;;;1999.90;999.90;;;7.60;99.90;;;;;;5076554;28;20410;-65
2024/01/22 00:29:34;;;;;;;1999.90;999.90;;;7.60;99.90;;;;;;5087479;28;20412;-66
2024/01/22 00:32:00;;;;;;;1999.90;999.90;;;7.70;99.90;;;;;;5072023;28;20418;-66
2024/01/22 00:34:27;;;;;;;1999.90;999.90;;;7.70;99.90;;;;;;5069391;28;20790;-67
2024/01/22 00:36:54;;;;;;;1999.90;999.90;;;7.90;99.90;;;;;;5075357;28;20420;-65
2024/01/22 00:39:22;;;;;;;1999.90;999.90;;;8.10;99.90;;;;;;5073102;28;20428;-66
2024/01/22 00:41:49;;;;;;;1999.90;999.90;;;7.90;99.90;;;;;;5077508;28;20429;-66
2024/01/22 00:44:16;;;;;;;1999.90;999.90;;;7.90;99.90;;;;;;5070827;28;20438;-66
2024/01/22 00:46:42;;;;;;;1999.90;999.90;;;7.90;99.90;;;;;;5069437;28;20408;-63
2024/01/22 00:49:09;;;;;;;1999.90;999.90;;;7.90;99.90;;;;;;5070036;28;20407;-66
2024/01/22 00:51:37;;;;;;;1999.90;999.90;;;7.80;99.90;;;;;;5076639;28;20415;-62
2024/01/22 00:54:04;;;;;;;1999.90;999.90;;;7.80;99.90;;;;;;5098945;28;20417;-68
2024/01/22 00:56:33;;;;;;;1999.90;999.90;;;7.70;99.90;;;;;;5103362;28;20411;-65
2024/01/22 00:58:59;;;;;;;1999.90;999.90;;;7.70;99.90;;;;;;5099915;28;20429;-70
2024/01/22 01:01:26;;;;;;;1999.90;999.90;;;7.90;99.90;;;;;;5085295;28;20585;-66
2024/01/22 01:03:55;;;;;;;1999.90;999.90;;;8.10;99.90;;;;;;5076452;28;20419;-65
2024/01/22 01:06:22;;;;;;;1999.90;999.90;;;8.30;99.90;;;;;;5078856;28;20417;-65
2024/01/22 01:08:48;;;;;;;1999.90;999.90;;;8.40;99.90;;;;;;5084854;28;20417;-65
2024/01/22 01:11:15;;;;;;;1999.90;999.90;;;8.40;99.90;;;;;;5072655;28;20821;-65
2024/01/22 01:13:43;;;;;;;1999.90;999.90;;;8.40;99.90;;;;;;5071020;28;20409;-65
2024/01/22 01:16:10;;;;;;;1999.90;999.90;;;8.40;99.90;;;;;;5070813;28;20454;-67
2024/01/22 01:18:37;;;;;;;1999.90;999.90;;;8.40;99.90;;;;;;5072723;28;20747;-65
2024/01/22 01:21:03;;;;;;;1999.90;999.90;;;8.50;99.90;;;;;;5081515;28;20423;-64
2024/01/22 01:23:30;;;;;;;1999.90;999.90;;;8.50;99.90;;;;;;5072160;28;20411;-66
2024/01/22 01:25:57;;;;;;;1999.90;999.90;;;8.50;99.90;;;;;;5073405;28;20603;-65
2024/01/22 01:28:24;;;;;;;1999.90;999.90;;;8.60;99.90;;;;;;5073151;28;20418;-67
2024/01/22 01:30:52;;;;;;;1999.90;999.90;;;8.80;99.90;;;;;;5080077;28;20417;-67
2024/01/22 01:33:19;;;;;;;1999.90;999.90;;;8.80;99.90;;;;;;5082876;28;20753;-66
2024/01/22 01:35:46;;;;;;;1999.90;999.90;;;8.90;99.90;;;;;;5077616;28;20405;-66
2024/01/22 01:38:12;;;;;;;1999.90;999.90;;;9.00;99.90;;;;;;5084299;28;20427;-66
2024/01/22 01:40:40;;;;;;;1999.90;999.90;;;9.00;99.90;;;;;;5072681;28;20926;-66
2024/01/22 01:43:07;;;;;;;1999.90;999.90;;;9.00;99.90;;;;;;5074896;28;20433;-66
2024/01/22 01:45:34;;;;;;;1999.90;999.90;;;9.20;99.90;;;;;;5073368;28;20435;-66
2024/01/22 01:48:03;;;;;;;1999.90;999.90;;;9.30;99.90;;;;;;5072127;28;20885;-66
2024/01/22 01:50:29;;;;;;;1999.90;999.90;;;9.40;99.90;;;;;;5080418;28;20413;-68
2024/01/22 01:52:56;;;;;;;1999.90;999.90;;;9.30;99.90;;;;;;5074132;28;20473;-66
2024/01/22 01:55:24;;;;;;;1999.90;999.90;;;9.30;99.90;;;;;;5075658;28;20407;-67
2024/01/22 01:57:51;;;;;;;1999.90;999.90;;;9.40;99.90;;;;;;5074776;28;20441;-65
2024/01/22 02:00:18;;;;;;;1999.90;999.90;;;9.30;99.90;;;;;;5072385;28;20431;-66
2024/01/22 02:02:45;;;;;;;1999.90;999.90;;;9.30;99.90;;;;;;5079844;28;20426;-64
2024/01/22 02:05:14;;;;;;;1999.90;999.90;;;9.30;99.90;;;;;;5071428;28;20519;-68
2024/01/22 02:07:41;;;;;;;1999.90;999.90;;;9.30;99.90;;;;;;5072438;28;20477;-67
2024/01/22 02:10:12;;;;;;;1999.90;999.90;;;9.30;99.90;;;;;;5072494;28;20480;-65
2024/01/22 02:12:39;;;;;;;1999.90;999.90;;;9.20;99.90;;;;;;5076671;28;20438;-66
2024/01/22 02:15:07;;;;;;;1999.90;999.90;;;9.10;99.90;;;;;;5077924;28;20853;-64
2024/01/22 02:17:33;;;;;;;1999.90;999.90;;;9.10;99.90;;;;;;5090552;28;20438;-62
2024/01/22 02:20:00;;;;;;;1999.90;999.90;;;9.00;99.90;;;;;;5072883;28;20435;-66
2024/01/22 02:22:28;;;;;;;1999.90;999.90;;;9.10;99.90;;;;;;5072870;28;20431;-66
2024/01/22 02:24:56;;;;;;;1999.90;999.90;;;9.30;99.90;;;;;;5074280;28;20932;-65
2024/01/22 02:27:23;;;;;;;1999.90;999.90;;;9.40;99.90;;;;;;5072229;28;20451;-67
2024/01/22 02:29:50;;;;;;;1999.90;999.90;;;9.50;99.90;;;;;;5071946;28;20408;-67
2024/01/22 02:32:16;;;;;;;1999.90;999.90;;;9.60;99.90;;;;;;5071702;28;20407;-66
2024/01/22 02:34:43;;;;;;;1999.90;999.90;;;9.80;99.90;;;;;;5075992;28;20908;-66
2024/01/22 02:37:10;;;;;;;1999.90;999.90;;;9.70;99.90;;;;;;5071755;28;20403;-64
2024/01/22 02:39:37;;;;;;;1999.90;999.90;;;9.90;99.90;;;;;;5070962;28;20446;-67
2024/01/22 02:42:05;;;;;;;1999.90;999.90;;;9.90;99.90;;;;;;5072247;28;20514;-67
2024/01/22 02:44:34;;;;;;;1999.90;999.90;;;9.90;99.90;;;;;;5079270;28;20414;-64
2024/01/22 02:47:01;;;;;;;1999.90;999.90;;;9.80;99.90;;;;;;5070141;28;20439;-64
2024/01/22 02:49:28;;;;;;;1999.90;999.90;;;9.80;99.90;;;;;;5073633;28;20447;-66
2024/01/22 02:51:55;;;;;;;1999.90;999.90;;;9.70;99.90;;;;;;5089282;28;20406;-66
2024/01/22 02:54:21;;;;;;;1999.90;999.90;;;9.80;99.90;;;;;;5087632;28;20429;-64
2024/01/22 02:56:48;;;;;;;1999.90;999.90;;;9.80;99.90;;;;;;5070382;28;20431;-66
2024/01/22 02:59:17;;;;;;;1999.90;999.90;;;9.80;99.90;;;;;;5079497;28;20411;-66
2024/01/22 03:01:44;;;;;;;1999.90;999.90;;;9.80;99.90;;;;;;5087163;28;20422;-66
2024/01/22 03:04:10;;;;;;;1999.90;999.90;;;9.80;99.90;;;;;;5073367;28;20468;-66
2024/01/22 03:06:38;;;;;;;1999.90;999.90;;;9.80;99.90;;;;;;5079412;28;20470;-67
2024/01/22 03:09:05;;;;;;;1999.90;999.90;;;9.80;99.90;;;;;;5071658;28;20489;-64
2024/01/22 03:11:32;;;;;;;1999.90;999.90;;;9.90;99.90;;;;;;5066328;28;20436;-67
2024/01/22 03:13:57;;;;;;;1999.90;999.90;;;10.00;99.90;;;;;;5070154;28;20416;-66
2024/01/22 03:16:25;;;;;;;1999.90;999.90;;;10.00;99.90;;;;;;5084561;28;20481;-64
2024/01/22 03:18:53;;;;;;;1999.90;999.90;;;10.10;99.90;;;;;;5086314;28;20459;-65
2024/01/22 03:21:19;;;;;;;1999.90;999.90;;;10.20;99.90;;;;;;5080757;28;20417;-62
2024/01/22 03:23:46;;;;;;;1999.90;999.90;;;10.30;99.90;;;;;;5063385;28;20426;-64
2024/01/22 03:26:19;;;;;;;1999.90;999.90;;;10.20;99.90;;;;;;5074878;28;20415;-63
2024/01/22 03:28:47;;;;;;;1999.90;999.90;;;10.20;99.90;;;;;;5074419;28;20439;-66
2024/01/22 03:31:21;;;;;;;1999.90;999.90;;;10.20;99.90;;;;;;5075834;28;20415;-67
2024/01/22 03:33:49;;;;;;;1999.90;999.90;;;10.40;99.90;;;;;;5075252;28;20398;-65
2024/01/22 03:36:16;;;;;;;1999.90;999.90;;;10.40;99.90;;;;;;5067847;28;20440;-65
2024/01/22 03:38:43;;;;;;;1999.90;999.90;;;10.30;99.90;;;;;;5070969;28;20415;-66
2024/01/22 03:41:09;;;;;;;1999.90;999.90;;;10.30;99.90;;;;;;5073694;28;20422;-65
2024/01/22 03:43:36;;;;;;;1999.90;999.90;;;10.30;99.90;;;;;;5070581;28;20439;-68
2024/01/22 03:46:03;;;;;;;1999.90;999.90;;;10.10;99.90;;;;;;5087850;28;20410;-68
2024/01/22 03:48:29;;;;;;;1999.90;999.90;;;10.00;99.90;;;;;;5088786;28;20414;-65
2024/01/22 03:50:57;;;;;;;1999.90;999.90;;;10.00;99.90;;;;;;5066370;28;20855;-66
2024/01/22 03:53:24;;;;;;;1999.90;999.90;;;10.10;99.90;;;;;;5071310;28;20489;-66
2024/01/22 03:55:51;;;;;;;1999.90;999.90;;;10.10;99.90;;;;;;5076725;28;20417;-66
2024/01/22 03:58:17;;;;;;;1999.90;999.90;;;10.10;99.90;;;;;;5077254;28;20418;-66
2024/01/22 04:00:44;;;;;;;1999.90;999.90;;;10.00;99.90;;;;;;5072258;28;20408;-66
2024/01/22 04:03:11;;;;;;;1999.90;999.90;;;10.00;99.90;;;;;;5070603;28;20427;-67
2024/01/22 04:05:37;;;;;;;1999.90;999.90;;;10.00;99.90;;;;;;5071297;28;20893;-64
2024/01/22 04:08:07;;;;;;;1999.90;999.90;;;9.80;99.90;;;;;;5068066;28;20808;-65
2024/01/22 04:10:34;;;;;;;1999.90;999.90;;;9.80;99.90;;;;;;5071539;28;20407;-64
2024/01/22 04:13:01;;;;;;;1999.90;999.90;;;9.70;99.90;;;;;;5073026;28;20857;-65
2024/01/22 04:15:27;;;;;;;1999.90;999.90;;;9.70;99.90;;;;;;5085593;28;20406;-64
2024/01/22 04:17:54;;;;;;;1999.90;999.90;;;9.70;99.90;;;;;;5090417;28;20776;-65
2024/01/22 04:20:21;;;;;;;1999.90;999.90;;;9.60;99.90;;;;;;5080281;28;20431;-67
2024/01/22 04:22:47;;;;;;;1999.90;999.90;;;9.70;99.90;;;;;;5067388;28;20428;-64
2024/01/22 04:25:15;;;;;;;1999.90;999.90;;;9.60;99.90;;;;;;5085216;28;20410;-64
2024/01/22 04:27:42;;;;;;;1999.90;999.90;;;9.70;99.90;;;;;;5090695;28;20784;-65
2024/01/22 04:30:10;;;;;;;1999.90;999.90;;;9.70;99.90;;;;;;5097694;28;20955;-64
2024/01/22 04:32:36;;;;;;;1999.90;999.90;;;9.80;99.90;;;;;;5082343;28;20403;-64
2024/01/22 04:35:04;;;;;;;1999.90;999.90;;;9.80;99.90;;;;;;5083816;28;20438;-65
2024/01/22 04:37:31;;;;;;;1999.90;999.90;;;9.80;99.90;;;;;;5082213;28;20410;-65
2024/01/22 04:40:09;;;;;;;1999.90;999.90;;;9.70;99.90;;;;;;5070678;28;20425;-65
2024/01/22 04:42:37;;;;;;;1999.90;999.90;;;9.80;99.90;;;;;;5073355;28;20507;-64
2024/01/22 04:45:04;;;;;;;1999.90;999.90;;;9.80;99.90;;;;;;5074060;28;20462;-64
2024/01/22 04:47:32;;;;;;;1999.90;999.90;;;9.90;99.90;;;;;;5089239;28;20414;-66
2024/01/22 04:49:59;;;;;;;1999.90;999.90;;;10.00;99.90;;;;;;5073944;28;20551;-64
2024/01/22 04:52:25;;;;;;;1999.90;999.90;;;9.90;99.90;;;;;;5070080;28;20433;-64
2024/01/22 04:54:52;;;;;;;1999.90;999.90;;;9.90;99.90;;;;;;5071961;28;20457;-63
2024/01/22 04:57:19;;;;;;;1999.90;999.90;;;10.00;99.90;;;;;;5069625;28;20419;-64
2024/01/22 04:59:47;;;;;;;1999.90;999.90;;;10.10;99.90;;;;;;5089667;28;20421;-63
2024/01/22 05:02:13;;;;;;;1999.90;999.90;;;10.20;99.90;;;;;;5089795;28;20410;-68
2024/01/22 05:04:40;;;;;;;1999.90;999.90;;;10.20;99.90;;;;;;5075221;28;20431;-67
2024/01/22 05:07:07;;;;;;;1999.90;999.90;;;10.20;99.90;;;;;;5069392;28;20407;-66
2024/01/22 05:09:33;;;;;;;1999.90;999.90;;;10.20;99.90;;;;;;5087715;28;20410;-67
2024/01/22 05:12:00;;;;;;;1999.90;999.90;;;10.20;99.90;;;;;;5089906;28;20414;-67
2024/01/22 05:14:27;;;;;;;1999.90;999.90;;;10.20;99.90;;;;;;5089925;28;20402;-66
2024/01/22 05:16:55;;;;;;;1999.90;999.90;;;10.10;99.90;;;;;;5090342;28;20417;-66
2024/01/22 05:19:22;;;;;;;1999.90;999.90;;;10.20;99.90;;;;;;5069130;28;20808;-68
2024/01/22 05:21:48;;;;;;;1999.90;999.90;;;10.10;99.90;;;;;;5073325;28;20414;-67
2024/01/22 05:24:15;;;;;;;1999.90;999.90;;;10.00;99.90;;;;;;5089563;28;20422;-66
2024/01/22 05:26:42;;;;;;;1999.90;999.90;;;9.80;99.90;;;;;;5090208;28;20855;-64
2024/01/22 05:29:09;;;;;;;1999.90;999.90;;;9.80;99.90;;;;;;5089521;28;20437;-68
2024/01/22 05:31:36;;;;;;;1999.90;999.90;;;9.90;99.90;;;;;;5086768;28;20434;-66
2024/01/22 05:34:04;;;;;;;1999.90;999.90;;;9.90;99.90;;;;;;5070386;28;20403;-66
2024/01/22 05:36:30;;;;;;;1999.90;999.90;;;9.80;99.90;;;;;;5078719;28;20425;-66
2024/01/22 05:38:57;;;;;;;1999.90;999.90;;;9.90;99.90;;;;;;5091513;28;20433;-67
2024/01/22 05:41:24;;;;;;;1999.90;999.90;;;9.90;99.90;;;;;;5089627;28;20401;-65
2024/01/22 05:43:50;;;;;;;1999.90;999.90;;;9.80;99.90;;;;;;5089554;28;20426;-67
2024/01/22 05:46:17;;;;;;;1999.90;999.90;;;9.90;99.90;;;;;;5085864;28;20443;-66
2024/01/22 05:48:44;;;;;;;1999.90;999.90;;;9.80;99.90;;;;;;5072802;28;20463;-66
2024/01/22 05:51:13;;;;;;;1999.90;999.90;;;9.80;99.90;;;;;;5076929;28;20471;-67
2024/01/22 05:53:40;;;;;;;1999.90;999.90;;;9.80;99.90;;;;;;5089674;28;20424;-69
2024/01/22 05:56:08;;;;;;;1999.90;999.90;;;9.80;99.90;;;;;;5089721;28;20410;-66
2024/01/22 05:58:34;;;;;;;1999.90;999.90;;;10.00;99.90;;;;;;5088902;28;20777;-66
2024/01/22 06:01:01;;;;;;;1999.90;999.90;;;10.00;99.90;;;;;;5084549;28;20433;-64
2024/01/22 06:03:28;;;;;;;1999.90;999.90;;;10.10;99.90;;;;;;5072216;28;20426;-65
2024/01/22 06:05:54;;;;;;;1999.90;999.90;;;10.20;99.90;;;;;;5085515;28;20413;-66
2024/01/22 06:08:22;;;;;;;1999.90;999.90;;;10.10;99.90;;;;;;5093233;28;20406;-65
2024/01/22 06:10:50;;;;;;;1999.90;999.90;;;10.10;99.90;;;;;;5092655;28;20413;-63
2024/01/22 06:13:17;;;;;;;1999.90;999.90;;;10.10;99.90;;;;;;5092686;28;20463;-67
2024/01/22 06:15:44;;;;;;;1999.90;999.90;;;10.00;99.90;;;;;;5087751;28;20827;-65
2024/01/22 06:18:10;;;;;;;1999.90;999.90;;;10.00;99.90;;;;;;5072902;28;20419;-66
2024/01/22 06:20:37;;;;;;;1999.90;999.90;;;10.00;99.90;;;;;;5083345;28;20440;-65
2024/01/22 06:23:04;;;;;;;1999.90;999.90;;;10.00;99.90;;;;;;5092037;28;20428;-66
2024/01/22 06:25:32;;;;;;;1999.90;999.90;;;10.00;99.90;;;;;;5093001;28;20414;-66
2024/01/22 06:27:59;;;;;;;1999.90;999.90;;;10.00;99.90;;;;;;5089571;28;20434;-68
2024/01/22 06:30:25;;;;;;;1999.90;999.90;;;10.10;99.90;;;;;;5095839;28;20437;-66
2024/01/22 06:32:52;;;;;;;1999.90;999.90;;;10.00;99.90;;;;;;5110663;28;20398;-67
2024/01/22 06:35:19;;;;;;;1999.90;999.90;;;10.00;99.90;;;;;;5115141;28;20410;-66
2024/01/22 06:37:45;;;;;;;1999.90;999.90;;;10.00;99.90;;;;;;5112817;28;20943;-68
2024/01/22 06:40:16;;;;;;;1999.90;999.90;;;10.00;99.90;;;;;;5095273;28;20961;-65
2024/01/22 06:42:44;;;;;;;1999.90;999.90;;;9.60;99.90;;;;;;5084737;28;20429;-66
2024/01/22 06:45:10;;;;;;;1999.90;999.90;;;9.30;99.90;;;;;;5077783;28;20457;-65
2024/01/22 06:47:37;;;;;;;1999.90;999.90;;;9.20;99.90;;;;;;5074349;28;20412;-66
2024/01/22 06:50:04;;;;;;;1999.90;999.90;;;9.20;99.90;;;;;;5091955;28;20796;-66
2024/01/22 06:52:31;;;;;;;1999.90;999.90;;;9.30;99.90;;;;;;5075143;28;20489;-67
2024/01/22 06:54:58;;;;;;;1999.90;999.90;;;9.30;99.90;;;;;;5076492;28;20406;-66
2024/01/22 06:57:24;;;;;;;1999.90;999.90;;;9.30;99.90;;;;;;5091136;28;20470;-66
2024/01/22 06:59:52;;;;;;;1999.90;999.90;;;9.30;99.90;;;;;;5085968;28;20481;-66
2024/01/22 07:02:19;;;;;;;1999.90;999.90;;;9.30;99.90;;;;;;5073658;28;20439;-66
2024/01/22 07:04:47;;;;;;;1999.90;999.90;;;9.40;99.90;;;;;;5074383;28;20457;-67
2024/01/22 07:07:13;;;;;;;1999.90;999.90;;;9.50;99.90;;;;;;5084219;28;20980;-65
2024/01/22 07:09:40;;;;;;;1999.90;999.90;;;9.50;99.90;;;;;;5074499;28;20956;-63
2024/01/22 07:12:07;;;;;;;1999.90;999.90;;;9.40;99.90;;;;;;5070801;28;20422;-66
2024/01/22 07:14:34;;;;;;;1999.90;999.90;;;9.30;99.90;;;;;;5079725;28;20913;-67
2024/01/22 07:17:03;;;;;;;1999.90;999.90;;;9.30;99.90;;;;;;5074173;28;20774;-65
2024/01/22 07:19:30;;;;;;;1999.90;999.90;;;9.20;99.90;;;;;;5080313;28;20463;-66
2024/01/22 07:21:56;;;;;;;1999.90;999.90;;;9.20;99.90;;;;;;5091045;28;20410;-65
2024/01/22 07:24:23;;;;;;;1999.90;999.90;;;9.30;99.90;;;;;;5091384;28;20452;-66
2024/01/22 07:26:49;;;;;;;1999.90;999.90;;;9.20;99.90;;;;;;5090704;28;20413;-67
2024/01/22 07:29:16;;;;;;;1999.90;999.90;;;9.20;99.90;;;;;;5079768;28;20425;-67
2024/01/22 07:31:43;;;;;;;1999.90;999.90;;;9.10;99.90;;;;;;5070905;28;20473;-66
2024/01/22 07:34:11;;;;;;;1999.90;999.90;;;9.20;99.90;;;;;;5085195;28;20401;-65
2024/01/22 07:36:38;;;;;;;1999.90;999.90;;;9.20;99.90;;;;;;5091046;28;20445;-66
2024/01/22 07:39:07;;;;;;;1999.90;999.90;;;9.20;99.90;;;;;;5090628;28;20446;-64
2024/01/22 07:41:34;;;;;;;1999.90;999.90;;;9.30;99.90;;;;;;5090471;28;20904;-65
2024/01/22 07:44:01;;;;;;;1999.90;999.90;;;9.30;99.90;;;;;;5084728;28;20425;-64
2024/01/22 07:46:28;;;;;;;1999.90;999.90;;;9.30;99.90;;;;;;5070422;28;20411;-66
2024/01/22 07:48:55;;;;;;;1999.90;999.90;;;9.40;99.90;;;;;;5074989;28;20425;-65
2024/01/22 07:51:24;;;;;;;1999.90;999.90;;;9.50;99.90;;;;;;5090774;28;21180;-62
2024/01/22 07:53:50;;;;;;;1999.90;999.90;;;9.60;99.90;;;;;;5090781;28;20410;-64
2024/01/22 07:56:17;;;;;;;1999.90;999.90;;;9.50;99.90;;;;;;5088526;28;20410;-65
2024/01/22 07:58:45;;;;;;;1999.90;999.90;;;9.50;99.90;;;;;;5080540;28;20445;-64
2024/01/22 08:01:12;;;;;;;1999.90;999.90;;;9.60;99.90;;;;;;5069911;28;20511;-66
2024/01/22 08:03:39;;;;;;;1999.90;999.90;;;9.60;99.90;;;;;;5088918;28;20475;-65
2024/01/22 08:06:06;;;;;;;1999.90;999.90;;;9.70;99.90;;;;;;5090377;28;20500;-64
2024/01/22 08:08:34;;;;;;;1999.90;999.90;;;9.80;99.90;;;;;;5090523;28;20410;-66
2024/01/22 08:11:00;;;;;;;1999.90;999.90;;;9.80;99.90;;;;;;5090334;28;20410;-65
2024/01/22 08:13:29;;;;;;;1999.90;999.90;;;9.90;99.90;;;;;;5077126;28;20419;-66
2024/01/22 08:15:56;;;;;;;1999.90;999.90;;;9.90;99.90;;;;;;5075208;28;20501;-66
2024/01/22 08:18:23;;;;;;;1999.90;999.90;;;9.90;99.90;;;;;;5087415;28;20418;-66
2024/01/22 08:20:50;;;;;;;1999.90;999.90;;;9.90;99.90;;;;;;5071893;28;20800;-66
2024/01/22 08:23:17;;;;;;;1999.90;999.90;;;9.90;99.90;;;;;;5068079;28;20435;-66
2024/01/22 08:25:44;;;;;;;1999.90;999.90;;;9.80;99.90;;;;;;5073013;28;20421;-65
2024/01/22 08:28:11;;;;;;;1999.90;999.90;;;9.60;99.90;;;;;;5089784;28;20410;-66
2024/01/22 08:30:38;;;;;;;1999.90;999.90;;;9.70;99.90;;;;;;5083461;28;21156;-65
2024/01/22 08:33:05;;;;;;;1999.90;999.90;;;9.70;99.90;;;;;;5089976;28;20410;-65
2024/01/22 08:35:32;;;;;;;1999.90;999.90;;;9.70;99.90;;;;;;5090266;28;20406;-67
2024/01/22 08:37:59;;;;;;;1999.90;999.90;;;9.70;99.90;;;;;;5069255;28;21100;-68
2024/01/22 08:40:26;;;;;;;1999.90;999.90;;;9.80;99.90;;;;;;5078699;28;20414;-65
2024/01/22 08:42:56;;;;;;;1999.90;999.90;;;9.90;99.90;;;;;;5089679;28;20422;-67
2024/01/22 08:45:23;;;;;;;1999.90;999.90;;;9.90;99.90;;;;;;5089474;28;20784;-66
2024/01/22 08:47:50;;;;;;;1999.90;999.90;;;9.90;99.90;;;;;;5090503;28;20405;-66
2024/01/22 08:50:19;;;;;;;1999.90;999.90;;;9.90;99.90;;;;;;5087412;28;20465;-67
2024/01/22 08:52:46;;;;;;;1999.90;999.90;;;10.00;99.90;;;;;;5078089;28;20425;-66
2024/01/22 08:55:13;;;;;;;1999.90;999.90;;;10.00;99.90;;;;;;5077686;28;20407;-65
2024/01/22 08:57:40;;;;;;;1999.90;999.90;;;10.00;99.90;;;;;;5090054;28;20444;-65
2024/01/22 09:00:11;;;;;;;1999.90;999.90;;;9.90;99.90;;;;;;5090658;28;20410;-64
2024/01/22 09:02:39;;;;;;;1999.90;999.90;;;9.90;99.90;;;;;;5073313;28;20847;-66
2024/01/22 09:05:07;;;;;;;1999.90;999.90;;;9.90;99.90;;;;;;5088743;28;20518;-67
2024/01/22 09:07:34;;;;;;;1999.90;999.90;;;9.80;99.90;;;;;;5090861;28;20499;-65
2024/01/22 09:10:02;;;;;;;1999.90;999.90;;;9.80;99.90;;;;;;5074994;28;20410;-64
2024/01/22 09:12:29;;;;;;;1999.90;999.90;;;9.80;99.90;;;;;;5078762;28;20504;-66
2024/01/22 09:14:56;;;;;;;1999.90;999.90;;;9.90;99.90;;;;;;5069715;28;20416;-65
2024/01/22 09:17:24;;;;;;;1999.90;999.90;;;10.00;99.90;;;;;;5086115;28;20410;-65
2024/01/22 09:19:50;;;;;;;1999.90;999.90;;;10.00;99.90;;;;;;5089945;28;20963;-65
2024/01/22 09:22:19;;;;;;;1999.90;999.90;;;10.10;99.90;;;;;;5090284;28;20414;-66
2024/01/22 09:24:45;;;;;;;1999.90;999.90;;;10.20;99.90;;;;;;5082372;28;20865;-67
2024/01/22 09:27:12;;;;;;;1999.90;999.90;;;10.10;99.90;;;;;;5073649;28;20428;-63
2024/01/22 09:29:41;;;;;;;1999.90;999.90;;;10.20;99.90;;;;;;5071668;28;20889;-67
2024/01/22 09:32:08;;;;;;;1999.90;999.90;;;10.20;99.90;;;;;;5090311;28;20471;-65
2024/01/22 09:34:36;;;;;;;1999.90;999.90;;;10.30;99.90;;;;;;5089376;28;20413;-67
2024/01/22 09:37:03;;;;;;;1999.90;999.90;;;10.50;99.90;;;;;;5092287;28;20410;-66
2024/01/22 09:39:30;;;;;;;1999.90;999.90;;;10.50;99.90;;;;;;5093306;28;20451;-67
2024/01/22 09:41:57;;;;;;;1999.90;999.90;;;10.60;99.90;;;;;;5083151;28;20427;-66
2024/01/22 09:44:24;;;;;;;1999.90;999.90;;;10.80;99.90;;;;;;5081110;28;20800;-67
2024/01/22 09:46:51;;;;;;;1999.90;999.90;;;11.00;99.90;;;;;;5077106;28;20413;-66
2024/01/22 09:49:18;;;;;;;1999.90;999.90;;;11.10;99.90;;;;;;5093316;28;20402;-66
2024/01/22 09:51:46;;;;;;;1999.90;999.90;;;11.10;99.90;;;;;;5093427;28;20883;-67
2024/01/22 09:54:17;;;;;;;1999.90;999.90;;;11.10;99.90;;;;;;5085540;28;20412;-68
2024/01/22 09:56:48;;;;;;;1999.90;999.90;;;11.20;99.90;;;;;;5078452;28;20419;-66
2024/01/22 09:59:19;;;;;;;1999.90;999.90;;;11.20;99.90;;;;;;5079822;28;20413;-65
2024/01/22 10:01:47;;;;;;;1999.90;999.90;;;11.30;99.90;;;;;;5093360;28;20417;-66
2024/01/22 10:04:15;;;;;;;1999.90;999.90;;;11.30;99.90;;;;;;5093006;28;20418;-67
2024/01/22 10:06:42;;;;;;;1999.90;999.90;;;11.20;99.90;;;;;;5093640;28;20467;-69
2024/01/22 10:09:14;;;;;;;1999.90;999.90;;;11.30;99.90;;;;;;5089798;28;20416;-67
2024/01/22 10:11:42;;;;;;;1999.90;999.90;;;11.30;99.90;;;;;;5071300;28;20447;-65
2024/01/22 10:14:09;;;;;;;1999.90;999.90;;;11.40;99.90;;;;;;5081526;28;20403;-67
2024/01/22 10:16:36;;;;;;;1999.90;999.90;;;11.30;99.90;;;;;;5073685;28;20445;-65
2024/01/22 10:19:07;;;;;;;1999.90;999.90;;;11.20;99.90;;;;;;5087645;28;20463;-68
2024/01/22 10:21:34;;;;;;;1999.90;999.90;;;11.00;99.90;;;;;;5091779;28;20410;-68
2024/01/22 10:24:02;;;;;;;1999.90;999.90;;;11.10;99.90;;;;;;5080123;28;20433;-68
2024/01/22 10:26:31;;;;;;;1999.90;999.90;;;11.30;99.90;;;;;;5072281;28;20480;-64
2024/01/22 10:29:13;;;;;;;1999.90;999.90;;;11.50;99.90;;;;;;5085675;28;20413;-67
2024/01/22 10:31:54;;;;;;;1999.90;999.90;;;11.50;99.90;;;;;;5092609;28;20467;-64
2024/01/22 10:34:21;;;;;;;1999.90;999.90;;;11.60;99.90;;;;;;5092385;28;20489;-68
2024/01/22 10:37:05;;;;;;;1999.90;999.90;;;11.60;99.90;;;;;;5091941;28;20413;-67
2024/01/22 10:39:32;;;;;;;1999.90;999.90;;;11.70;99.90;;;;;;5082817;28;20467;-64
2024/01/22 10:42:12;;;;;;;1999.90;999.90;;;11.70;99.90;;;;;;5071879;28;20423;-67
2024/01/22 10:44:41;;;;;;;1999.90;999.90;;;11.70;99.90;;;;;;5090552;28;20796;-68
2024/01/22 10:47:09;;;;;;;1999.90;999.90;;;11.70;99.90;;;;;;5091777;28;20487;-65
2024/01/22 10:49:36;;;;;;;1999.90;999.90;;;11.70;99.90;;;;;;5092325;28;20421;-69
2024/01/22 10:52:04;;;;;;;1999.90;999.90;;;11.80;99.90;;;;;;5091793;28;20410;-68
2024/01/22 10:54:32;;;;;;;1999.90;999.90;;;11.80;99.90;;;;;;5075129;28;20437;-68
2024/01/22 10:57:03;;;;;;;1999.90;999.90;;;11.90;99.90;;;;;;5071121;28;20792;-68
2024/01/22 10:59:36;;;;;;;1999.90;999.90;;;12.00;99.90;;;;;;5081008;28;20406;-70
2024/01/22 11:02:04;;;;;;;1999.90;999.90;;;11.80;99.90;;;;;;5092773;28;20848;-66
2024/01/22 11:04:34;;;;;;;1999.90;999.90;;;11.70;99.90;;;;;;5092067;28;20422;-66
2024/01/22 11:07:02;;;;;;;1999.90;999.90;;;11.70;99.90;;;;;;5092407;28;20413;-67
2024/01/22 11:09:32;;;;;;;1999.90;999.90;;;11.60;99.90;;;;;;5090303;28;20432;-67
2024/01/22 11:12:03;;;;;;;1999.90;999.90;;;11.60;99.90;;;;;;5071702;28;20419;-67
2024/01/22 11:14:32;;;;;;;1999.90;999.90;;;11.60;99.90;;;;;;5071191;28;20462;-67
2024/01/22 11:16:59;;;;;;;1999.90;999.90;;;11.60;99.90;;;;;;5076650;28;20413;-68
2024/01/22 11:19:26;;;;;;;1999.90;999.90;;;11.60;99.90;;;;;;5091766;28;20443;-64
2024/01/22 11:21:54;;;;;;;1999.90;999.90;;;11.60;99.90;;;;;;5091517;28;20398;-65
2024/01/22 11:24:22;;;;;;;1999.90;999.90;;;11.60;99.90;;;;;;5091484;28;20471;-66
2024/01/22 11:27:03;;;;;;;1999.90;999.90;;;11.60;99.90;;;;;;5080265;28;20509;-69
2024/01/22 11:29:32;;;;;;;1999.90;999.90;;;11.50;99.90;;;;;;5072328;28;20420;-67
2024/01/22 11:32:27;;;;;;;1999.90;999.90;;;11.50;99.90;;;;;;5091561;28;20402;-67
2024/01/22 11:34:57;;;;;;;1999.90;999.90;;;11.50;99.90;;;;;;5091016;28;20398;-67
2024/01/22 11:37:37;;;;;;;1999.90;999.90;;;11.50;99.90;;;;;;5091764;28;20410;-67
2024/01/22 11:40:07;;;;;;;1999.90;999.90;;;11.40;99.90;;;;;;5091946;28;20410;-67
2024/01/22 11:42:33;;;;;;;1999.90;999.90;;;11.40;99.90;;;;;;5071276;28;20578;-66
2024/01/22 11:45:12;;;;;;;1999.90;999.90;;;11.40;99.90;;;;;;5075834;28;20509;-68
2024/01/22 11:47:41;;;;;;;1999.90;999.90;;;11.50;99.90;;;;;;5091315;28;20965;-66
2024/01/22 11:50:10;;;;;;;1999.90;999.90;;;11.40;99.90;;;;;;5092061;28;20406;-67
2024/01/22 11:52:37;;;;;;;1999.90;999.90;;;11.40;99.90;;;;;;5091673;28;20440;-65
2024/01/22 11:55:06;;;;;;;1999.90;999.90;;;11.50;99.90;;;;;;5085460;28;20990;-68
2024/01/22 11:57:35;;;;;;;1999.90;999.90;;;11.40;99.90;;;;;;5072370;28;20418;-66
2024/01/22 12:00:04;;;;;;;1999.90;999.90;;;11.50;99.90;;;;;;5090416;28;20406;-65
2024/01/22 12:02:32;;;;;;;1999.90;999.90;;;11.40;99.90;;;;;;5091019;28;20416;-67
2024/01/22 12:05:09;;;;;;;1999.90;999.90;;;11.50;99.90;;;;;;5091164;28;20459;-66